Terminal Aerodrome Forecast
Issued by NWS Dodge City, KS

Home | Current Version | Previous Version | Text Only | Print | Product List | Glossary On
Versions: 1 2 3 4 5 6 7 8 9 10 11 12 13 14 15 16 17 18
000
FTUS43 KDDC 290528
TAFDDC
TAF
KDDC 290528Z 2906/3006 VRB05KT P6SM BKN150
     FM291000 19005KT 5SM BR BKN060
     FM291500 16005KT P6SM BKN140 PROB30 2917/2921 4SM -TSRA
      OVC040CB
     FM300000 09007KT P6SM BKN090=

USA.gov is the U.S. government's official web portal to all federal, state and local government web resources and services.